createdAt,value
2017-11-29T00:01:31.133Z,93.74
2017-11-29T00:03:58.634Z,94.45
2017-11-29T00:06:26.129Z,94.43
2017-11-29T00:08:53.647Z,95.03
2017-11-29T00:11:21.147Z,93.99
2017-11-29T00:13:48.637Z,93.44
2017-11-29T00:16:16.495Z,95.45
2017-11-29T00:18:44.013Z,95.57
2017-11-29T00:21:11.536Z,95.67
2017-11-29T00:23:39.097Z,95.32
2017-11-29T00:26:06.588Z,94.24
2017-11-29T00:28:34.069Z,93.35
2017-11-29T00:31:01.590Z,93.57
2017-11-29T00:33:29.078Z,95.48
2017-11-29T00:35:56.567Z,96.91
2017-11-29T00:38:24.073Z,97.43
2017-11-29T00:40:51.566Z,97.81
2017-11-29T00:43:19.071Z,97.21
2017-11-29T00:45:46.583Z,96.15
2017-11-29T00:48:14.109Z,95.45
2017-11-29T00:50:41.627Z,94.86
2017-11-29T00:53:09.113Z,93.21
2017-11-29T00:55:36.631Z,93.55
2017-11-29T00:58:04.128Z,94.89
2017-11-29T01:00:31.622Z,96.32
2017-11-29T01:02:59.124Z,94.63
2017-11-29T01:05:26.638Z,94.14
2017-11-29T01:07:54.139Z,94.64
2017-11-29T01:10:21.653Z,94.08
2017-11-29T01:12:49.155Z,92.97
2017-11-29T01:15:16.660Z,94.04
2017-11-29T01:17:44.146Z,94.96
2017-11-29T01:20:11.645Z,97.96
2017-11-29T01:22:39.132Z,98.47
2017-11-29T01:25:06.645Z,97.40
2017-11-29T01:27:34.130Z,97.03
2017-11-29T01:30:01.618Z,96.63
2017-11-29T01:32:29.121Z,96.50
2017-11-29T01:34:56.634Z,96.06
2017-11-29T01:37:24.127Z,98.06
2017-11-29T01:39:51.635Z,97.78
2017-11-29T01:42:19.150Z,99.08
2017-11-29T01:44:46.643Z,99.58
2017-11-29T01:47:14.238Z,99.26
2017-11-29T01:49:41.834Z,99.10
2017-11-29T01:52:09.323Z,98.58
2017-11-29T01:54:36.818Z,98.02
2017-11-29T01:57:04.329Z,97.56
2017-11-29T01:59:31.830Z,97.38
2017-11-29T02:01:59.322Z,97.26
2017-11-29T02:04:26.828Z,97.01
2017-11-29T02:06:54.317Z,96.96
2017-11-29T02:09:21.830Z,96.48
2017-11-29T02:11:49.331Z,96.54
2017-11-29T02:14:16.852Z,98.12
2017-11-29T02:16:44.543Z,99.13
2017-11-29T02:19:12.039Z,99.80
2017-11-29T02:21:39.550Z,100.00
2017-11-29T02:24:07.060Z,100.00
2017-11-29T02:26:34.548Z,100.00
2017-11-29T02:29:02.128Z,100.00
2017-11-29T02:31:29.627Z,99.95
2017-11-29T02:33:57.122Z,99.40
2017-11-29T02:36:24.606Z,98.61
2017-11-29T02:38:52.109Z,98.64
2017-11-29T02:41:31.609Z,99.02
2017-11-29T02:43:59.121Z,99.56
2017-11-29T02:46:26.602Z,99.12
2017-11-29T02:48:54.109Z,98.65
2017-11-29T02:51:21.596Z,97.90
2017-11-29T02:53:49.083Z,98.44
2017-11-29T02:56:16.584Z,98.94
2017-11-29T02:58:44.101Z,99.83
2017-11-29T03:01:11.605Z,100.00
2017-11-29T03:06:46.848Z,100.00
2017-11-29T03:09:18.325Z,100.00
2017-11-29T03:11:49.144Z,100.00
2017-11-29T03:14:20.049Z,99.67
2017-11-29T03:16:49.738Z,99.58
2017-11-29T03:19:19.242Z,98.70
2017-11-29T03:21:49.183Z,99.27
2017-11-29T03:24:18.528Z,100.00
2017-11-29T03:26:47.634Z,100.00
2017-11-29T03:29:15.174Z,100.00
2017-11-29T03:31:43.902Z,100.00
2017-11-29T03:34:15.341Z,100.00
2017-11-29T03:36:45.842Z,100.00
2017-11-29T03:39:17.889Z,100.00
2017-11-29T03:41:49.997Z,100.00
2017-11-29T03:44:20.704Z,100.00
2017-11-29T03:46:52.061Z,100.00
2017-11-29T03:49:21.932Z,100.00
2017-11-29T03:51:52.647Z,100.00
2017-11-29T03:54:22.116Z,100.00
2017-11-29T03:56:49.642Z,100.00
2017-11-29T03:59:17.145Z,100.00
2017-11-29T04:01:44.643Z,100.00
2017-11-29T04:04:12.149Z,100.00
2017-11-29T04:06:39.660Z,100.00
2017-11-29T04:09:07.180Z,100.00
2017-11-29T04:11:34.703Z,100.00
2017-11-29T04:14:02.207Z,99.95
2017-11-29T04:16:29.711Z,99.59
2017-11-29T04:18:57.231Z,98.95
2017-11-29T04:21:24.756Z,98.46
2017-11-29T04:23:52.250Z,97.56
2017-11-29T04:26:19.751Z,98.46
2017-11-29T04:28:47.255Z,99.04
2017-11-29T04:31:14.770Z,98.38
2017-11-29T04:33:42.261Z,97.25
2017-11-29T04:36:09.770Z,96.23
2017-11-29T04:38:37.287Z,97.11
2017-11-29T04:41:04.786Z,98.48
2017-11-29T04:43:32.281Z,99.87
2017-11-29T04:45:59.782Z,100.00
2017-11-29T04:48:27.287Z,100.00
2017-11-29T04:50:54.786Z,100.00
2017-11-29T04:53:22.280Z,100.00
2017-11-29T04:55:49.771Z,99.80
2017-11-29T04:58:17.275Z,99.74
2017-11-29T05:00:44.786Z,99.40
2017-11-29T05:03:12.282Z,98.47
2017-11-29T05:05:39.770Z,98.75
2017-11-29T05:08:07.262Z,97.73
2017-11-29T05:10:34.763Z,96.77
2017-11-29T05:13:02.276Z,97.18
2017-11-29T05:15:29.778Z,97.01
2017-11-29T05:17:57.281Z,98.54
2017-11-29T05:20:24.801Z,99.26
2017-11-29T05:22:52.330Z,99.39
2017-11-29T05:25:19.823Z,99.80
2017-11-29T05:27:47.329Z,99.81
2017-11-29T05:30:14.829Z,99.73
2017-11-29T05:32:42.443Z,99.12
2017-11-29T05:35:09.940Z,99.18
2017-11-29T05:37:37.451Z,99.53
2017-11-29T05:40:04.959Z,99.73
2017-11-29T05:42:32.474Z,99.35
2017-11-29T05:44:59.991Z,98.46
2017-11-29T05:47:27.497Z,97.46
2017-11-29T05:49:54.995Z,97.50
2017-11-29T05:52:22.511Z,98.22
2017-11-29T05:54:50.028Z,98.37
2017-11-29T05:57:17.522Z,99.21
2017-11-29T05:59:45.047Z,99.63
2017-11-29T06:02:12.690Z,99.86
2017-11-29T06:04:40.191Z,99.78
2017-11-29T06:07:07.699Z,99.69
2017-11-29T06:09:35.225Z,99.08
2017-11-29T06:12:02.766Z,99.00
2017-11-29T06:14:30.276Z,98.37
2017-11-29T06:16:57.781Z,97.19
2017-11-29T06:19:25.287Z,97.21
2017-11-29T06:21:52.787Z,97.51
2017-11-29T06:24:20.289Z,96.83
2017-11-29T06:26:47.801Z,96.83
2017-11-29T06:29:15.299Z,98.62
2017-11-29T06:31:42.806Z,99.45
2017-11-29T06:34:10.329Z,99.92
2017-11-29T06:36:37.859Z,99.95
2017-11-29T06:39:05.384Z,99.31
2017-11-29T06:41:32.898Z,98.65
2017-11-29T06:44:00.432Z,98.20
2017-11-29T06:46:27.936Z,98.77
2017-11-29T06:48:55.499Z,98.38
2017-11-29T06:51:22.998Z,98.73
2017-11-29T06:53:50.529Z,98.00
2017-11-29T06:56:18.025Z,97.96
2017-11-29T06:58:45.548Z,98.04
2017-11-29T07:01:13.063Z,98.45
2017-11-29T07:03:40.546Z,98.35
2017-11-29T07:06:08.033Z,99.17
2017-11-29T07:08:35.537Z,99.50
2017-11-29T07:11:03.042Z,99.68
2017-11-29T07:13:30.559Z,99.71
2017-11-29T07:15:58.228Z,99.37
2017-11-29T07:18:25.734Z,99.73
2017-11-29T07:20:53.235Z,99.36
2017-11-29T07:23:20.897Z,99.14
2017-11-29T07:25:48.415Z,98.54
2017-11-29T07:28:15.909Z,98.28
2017-11-29T07:30:44.694Z,97.79
2017-11-29T07:33:12.201Z,96.46
2017-11-29T07:35:39.713Z,95.77
2017-11-29T07:38:07.413Z,95.27
2017-11-29T07:40:34.907Z,97.03
2017-11-29T07:43:02.442Z,97.27
2017-11-29T07:45:30.044Z,97.58
2017-11-29T07:47:57.579Z,98.50
2017-11-29T07:50:25.116Z,98.71
2017-11-29T07:52:52.621Z,98.58
2017-11-29T07:55:20.151Z,98.00
2017-11-29T07:57:47.669Z,97.65
2017-11-29T08:00:15.186Z,94.86
2017-11-29T08:02:42.682Z,92.92
2017-11-29T08:05:10.186Z,91.70
2017-11-29T08:07:37.698Z,90.04
2017-11-29T08:10:05.228Z,88.39
2017-11-29T08:12:32.779Z,92.25
2017-11-29T08:15:00.279Z,90.25
2017-11-29T08:17:27.787Z,89.09
2017-11-29T08:19:55.313Z,89.41
2017-11-29T08:22:22.810Z,87.89
2017-11-29T08:24:50.310Z,88.04
2017-11-29T08:27:17.804Z,89.98
2017-11-29T08:29:45.306Z,90.48
2017-11-29T08:32:12.818Z,94.22
2017-11-29T08:34:40.333Z,91.72
2017-11-29T08:37:07.851Z,88.01
2017-11-29T08:39:35.350Z,91.46
2017-11-29T08:42:02.860Z,92.70
2017-11-29T08:44:30.370Z,90.76
2017-11-29T08:46:57.881Z,89.27
2017-11-29T08:49:25.391Z,88.03
2017-11-29T08:51:53.034Z,85.92
2017-11-29T08:54:20.557Z,85.91
2017-11-29T08:56:48.057Z,85.59
2017-11-29T08:59:15.567Z,84.15
2017-11-29T09:01:43.059Z,82.42
2017-11-29T09:04:10.613Z,84.69
2017-11-29T09:06:38.144Z,83.60
2017-11-29T09:09:05.642Z,83.81
2017-11-29T09:11:33.145Z,80.57
2017-11-29T09:14:00.755Z,78.81
2017-11-29T09:16:28.266Z,77.30
2017-11-29T09:18:55.804Z,68.01
2017-11-29T09:21:23.398Z,73.52
2017-11-29T09:23:50.909Z,69.59
2017-11-29T09:26:18.432Z,69.03
2017-11-29T09:28:46.687Z,64.21
2017-11-29T09:31:14.260Z,55.72
2017-11-29T09:33:41.810Z,61.45
2017-11-29T09:36:09.316Z,65.29
2017-11-29T09:38:36.810Z,69.96
2017-11-29T09:41:04.461Z,65.50
2017-11-29T09:43:32.111Z,64.98
2017-11-29T09:45:59.637Z,65.88
2017-11-29T09:48:27.203Z,66.66
2017-11-29T09:50:54.873Z,66.13
2017-11-29T09:53:22.372Z,68.37
2017-11-29T09:55:49.867Z,63.01
2017-11-29T09:58:17.386Z,57.04
2017-11-29T10:00:45.538Z,46.06
2017-11-29T10:03:13.157Z,45.60
2017-11-29T10:05:40.665Z,45.35
2017-11-29T10:08:08.159Z,47.50
2017-11-29T10:10:35.776Z,47.41
2017-11-29T10:13:03.283Z,64.43
2017-11-29T10:15:30.797Z,74.66
2017-11-29T10:17:58.308Z,70.44
2017-11-29T10:20:25.827Z,71.21
2017-11-29T10:22:53.328Z,73.03
2017-11-29T10:25:20.914Z,73.31
2017-11-29T10:27:48.568Z,71.99
2017-11-29T10:30:16.077Z,73.76
2017-11-29T10:32:43.556Z,76.14
2017-11-29T10:35:11.159Z,77.68
2017-11-29T10:37:38.775Z,77.38
2017-11-29T10:40:06.314Z,78.20
2017-11-29T10:42:33.836Z,75.65
2017-11-29T10:45:01.360Z,76.78
2017-11-29T10:47:28.849Z,77.78
2017-11-29T10:49:56.514Z,76.89
2017-11-29T10:52:24.010Z,79.12
2017-11-29T10:54:51.506Z,77.70
2017-11-29T10:57:19.013Z,78.70
2017-11-29T10:59:46.534Z,80.03
2017-11-29T11:02:14.188Z,79.35
2017-11-29T11:04:41.700Z,78.70
2017-11-29T11:07:09.196Z,77.59
2017-11-29T11:09:36.688Z,80.32
2017-11-29T11:12:04.324Z,78.08
2017-11-29T11:14:31.832Z,79.29
2017-11-29T11:16:59.448Z,80.14
2017-11-29T11:19:26.946Z,79.68
2017-11-29T11:21:54.439Z,79.68
2017-11-29T11:24:21.966Z,78.71
2017-11-29T11:26:49.518Z,80.74
2017-11-29T11:29:17.021Z,81.83
2017-11-29T11:31:44.502Z,80.69
2017-11-29T11:34:12.071Z,81.61
2017-11-29T11:36:39.704Z,80.91
2017-11-29T11:39:07.278Z,81.65
2017-11-29T11:41:34.838Z,83.07
2017-11-29T11:44:02.351Z,82.00
2017-11-29T11:46:29.961Z,81.89
2017-11-29T11:48:57.459Z,81.36
2017-11-29T11:51:25.064Z,83.88
2017-11-29T11:53:52.726Z,83.49
2017-11-29T11:56:20.230Z,83.77
2017-11-29T11:58:47.720Z,82.59
2017-11-29T12:01:15.233Z,82.54
2017-11-29T12:03:42.731Z,82.72
2017-11-29T12:06:10.239Z,81.53
2017-11-29T12:08:37.754Z,80.97
2017-11-29T12:11:05.254Z,81.25
2017-11-29T12:13:32.752Z,80.63
2017-11-29T12:16:00.255Z,82.59
2017-11-29T12:18:27.750Z,85.72
2017-11-29T12:20:55.256Z,86.08
2017-11-29T12:23:22.784Z,86.29
2017-11-29T12:25:50.270Z,85.97
2017-11-29T12:28:17.875Z,88.39
2017-11-29T12:30:45.372Z,87.61
2017-11-29T12:33:12.880Z,87.15
2017-11-29T12:35:40.390Z,85.51
2017-11-29T12:38:07.887Z,85.04
2017-11-29T12:40:35.386Z,83.67
2017-11-29T12:43:02.903Z,83.83
2017-11-29T12:45:30.397Z,82.88
2017-11-29T12:48:09.728Z,83.29
2017-11-29T12:53:41.459Z,82.67
2017-11-29T12:56:08.974Z,82.16
2017-11-29T12:58:36.494Z,83.41
2017-11-29T13:01:03.986Z,84.05
2017-11-29T13:03:31.518Z,83.93
2017-11-29T13:05:59.025Z,85.30
2017-11-29T13:08:26.530Z,84.62
2017-11-29T13:10:54.020Z,83.65
2017-11-29T13:13:21.527Z,82.36
2017-11-29T13:15:49.029Z,84.45
2017-11-29T13:18:16.553Z,85.51
2017-11-29T13:20:44.080Z,86.08
2017-11-29T13:23:11.593Z,84.51
2017-11-29T13:25:39.085Z,83.28
2017-11-29T13:28:06.635Z,82.37
2017-11-29T13:30:34.213Z,84.38
2017-11-29T13:33:01.706Z,86.07
2017-11-29T13:35:29.205Z,84.73
2017-11-29T13:37:56.702Z,85.59
2017-11-29T13:40:24.226Z,84.12
2017-11-29T13:42:51.727Z,83.57
2017-11-29T13:45:19.224Z,83.18
2017-11-29T13:47:46.737Z,82.13
2017-11-29T13:50:14.254Z,83.96
2017-11-29T13:52:41.861Z,86.34
2017-11-29T13:55:09.394Z,84.31
2017-11-29T13:57:37.738Z,84.46
2017-11-29T14:00:05.250Z,85.46
2017-11-29T14:02:32.833Z,85.23
2017-11-29T14:05:00.336Z,86.50
2017-11-29T14:07:27.826Z,88.16
2017-11-29T14:09:55.492Z,90.12
2017-11-29T14:12:22.976Z,89.14
2017-11-29T14:14:50.475Z,88.90
2017-11-29T14:17:17.989Z,87.94
2017-11-29T14:19:45.491Z,87.94
2017-11-29T14:22:12.980Z,88.60
2017-11-29T14:24:40.477Z,88.06
2017-11-29T14:27:07.974Z,90.04
2017-11-29T14:29:35.463Z,91.27
2017-11-29T14:32:02.979Z,92.00
2017-11-29T14:34:32.131Z,90.93
2017-11-29T14:36:59.701Z,89.61
2017-11-29T14:39:27.208Z,89.26
2017-11-29T14:41:54.715Z,90.23
2017-11-29T14:44:22.204Z,88.45
2017-11-29T14:46:49.704Z,88.26
2017-11-29T14:49:17.217Z,88.66
2017-11-29T14:51:44.721Z,89.97
2017-11-29T14:54:12.215Z,90.45
2017-11-29T14:56:39.734Z,90.90
2017-11-29T14:59:07.244Z,91.51
2017-11-29T15:01:34.747Z,90.26
2017-11-29T15:04:02.263Z,89.84
2017-11-29T15:06:29.791Z,89.54
2017-11-29T15:08:57.325Z,91.77
2017-11-29T15:11:24.821Z,94.11
2017-11-29T15:13:52.359Z,94.90
2017-11-29T15:16:19.897Z,92.41
2017-11-29T15:18:47.422Z,91.55
2017-11-29T15:21:14.938Z,91.90
2017-11-29T15:23:42.482Z,92.66
2017-11-29T15:26:09.973Z,92.64
2017-11-29T15:28:37.486Z,92.99
2017-11-29T15:31:05.034Z,91.36
2017-11-29T15:33:34.118Z,90.55
2017-11-29T15:36:01.624Z,91.29
2017-11-29T15:38:29.170Z,92.46
2017-11-29T15:40:56.683Z,92.26
2017-11-29T15:43:24.171Z,91.42
2017-11-29T15:45:51.667Z,91.06
2017-11-29T15:48:19.169Z,91.81
2017-11-29T15:50:46.786Z,92.28
2017-11-29T15:53:14.307Z,92.26
2017-11-29T15:55:41.847Z,92.49
2017-11-29T15:58:09.351Z,92.59
2017-11-29T16:00:36.841Z,93.58
2017-11-29T16:03:04.460Z,92.23
2017-11-29T16:05:31.967Z,92.58
2017-11-29T16:07:59.465Z,92.66
2017-11-29T16:10:26.975Z,93.49
2017-11-29T16:12:54.546Z,94.08
2017-11-29T16:15:22.061Z,94.49
2017-11-29T16:17:49.571Z,94.45
2017-11-29T16:20:17.072Z,96.02
2017-11-29T16:22:44.563Z,97.37
2017-11-29T16:25:12.071Z,97.58
2017-11-29T16:27:39.597Z,96.57
2017-11-29T16:30:07.096Z,94.90
2017-11-29T16:32:34.623Z,93.97
2017-11-29T16:35:02.314Z,94.13
2017-11-29T16:37:29.807Z,93.35
2017-11-29T16:39:57.356Z,94.11
2017-11-29T16:42:24.883Z,94.33
2017-11-29T16:44:52.408Z,94.19
2017-11-29T16:47:19.925Z,93.79
2017-11-29T16:49:47.464Z,94.32
2017-11-29T16:52:15.018Z,94.61
2017-11-29T16:54:42.547Z,95.34
2017-11-29T16:57:10.060Z,95.26
2017-11-29T16:59:37.567Z,95.44
2017-11-29T17:02:05.097Z,95.44
2017-11-29T17:04:32.598Z,94.46
2017-11-29T17:07:00.101Z,94.53
2017-11-29T17:09:27.589Z,94.97
2017-11-29T17:11:55.102Z,95.05
2017-11-29T17:14:22.607Z,95.94
2017-11-29T17:16:50.147Z,96.85
2017-11-29T17:19:17.631Z,95.89
2017-11-29T17:21:45.175Z,94.47
2017-11-29T17:24:12.747Z,93.24
2017-11-29T17:26:40.270Z,92.96
2017-11-29T17:29:07.914Z,93.70
2017-11-29T17:31:35.457Z,94.24
2017-11-29T17:34:03.015Z,94.81
2017-11-29T17:36:30.557Z,94.00
2017-11-29T17:38:58.079Z,93.63
2017-11-29T17:41:25.602Z,95.58
2017-11-29T17:43:53.117Z,96.08
2017-11-29T17:46:20.639Z,96.71
2017-11-29T17:48:48.162Z,95.51
2017-11-29T17:51:15.722Z,94.79
2017-11-29T17:53:43.250Z,93.92
2017-11-29T17:56:10.756Z,93.20
2017-11-29T17:58:38.277Z,93.16
2017-11-29T18:01:05.809Z,95.36
2017-11-29T18:03:33.329Z,97.02
2017-11-29T18:06:00.847Z,97.23
2017-11-29T18:08:28.349Z,95.98
2017-11-29T18:10:55.851Z,93.10
2017-11-29T18:13:23.358Z,93.28
2017-11-29T18:15:50.872Z,95.27
2017-11-29T18:18:18.375Z,96.76
2017-11-29T18:20:45.880Z,98.41
2017-11-29T18:23:13.409Z,99.22
2017-11-29T18:25:40.940Z,98.58
2017-11-29T18:28:08.470Z,97.48
2017-11-29T18:30:36.019Z,96.43
2017-11-29T18:33:03.540Z,97.09
2017-11-29T18:35:31.108Z,98.99
2017-11-29T18:37:58.642Z,100.00
2017-11-29T18:40:26.213Z,100.00
2017-11-29T18:42:53.720Z,100.00
2017-11-29T18:45:21.249Z,100.00
2017-11-29T18:47:49.003Z,100.00
2017-11-29T18:50:16.772Z,100.00
2017-11-29T18:52:44.307Z,100.00
2017-11-29T18:55:11.818Z,100.00
2017-11-29T18:57:39.343Z,100.00
2017-11-29T19:00:06.868Z,100.00
2017-11-29T19:02:34.418Z,100.00
2017-11-29T19:05:01.942Z,100.00
2017-11-29T19:07:29.479Z,100.00
2017-11-29T19:09:57.008Z,100.00
2017-11-29T19:12:24.539Z,100.00
2017-11-29T19:14:52.260Z,100.00
2017-11-29T19:17:20.123Z,100.00
2017-11-29T19:19:47.991Z,100.00
2017-11-29T19:22:15.958Z,100.00
2017-11-29T19:24:43.826Z,100.00
2017-11-29T19:27:11.901Z,100.00
2017-11-29T19:29:39.967Z,100.00
2017-11-29T19:32:07.937Z,100.00
2017-11-29T19:34:35.907Z,100.00
2017-11-29T19:37:03.880Z,100.00
2017-11-29T19:39:32.162Z,100.00
2017-11-29T19:42:00.118Z,99.91
2017-11-29T19:44:28.292Z,99.50
2017-11-29T19:46:56.396Z,99.95
2017-11-29T19:49:24.343Z,100.00
2017-11-29T19:51:52.423Z,100.00
2017-11-29T19:54:20.683Z,100.00
2017-11-29T19:56:48.660Z,99.86
2017-11-29T19:59:16.733Z,100.00
2017-11-29T20:01:44.793Z,100.00
2017-11-29T20:04:12.930Z,99.80
2017-11-29T20:06:40.934Z,98.71
2017-11-29T20:09:09.006Z,99.68
2017-11-29T20:11:37.056Z,100.00
2017-11-29T20:14:05.053Z,100.00
2017-11-29T20:16:33.000Z,100.00
2017-11-29T20:19:00.889Z,100.00
2017-11-29T20:21:28.966Z,100.00
2017-11-29T20:23:56.928Z,100.00
2017-11-29T20:26:24.906Z,100.00
2017-11-29T20:28:52.976Z,100.00
2017-11-29T20:31:20.932Z,100.00
2017-11-29T20:33:48.904Z,100.00
2017-11-29T20:36:17.095Z,100.00
2017-11-29T20:38:44.639Z,100.00
2017-11-29T20:41:12.299Z,100.00
2017-11-29T20:43:40.029Z,100.00
2017-11-29T20:46:07.621Z,100.00
2017-11-29T20:48:35.185Z,100.00
2017-11-29T20:51:02.764Z,100.00
2017-11-29T20:53:30.293Z,100.00
2017-11-29T20:55:57.878Z,99.34
2017-11-29T20:58:25.519Z,98.96
2017-11-29T21:00:53.035Z,99.29
2017-11-29T21:03:20.590Z,99.85
2017-11-29T21:05:48.128Z,100.00
2017-11-29T21:08:15.663Z,99.07
2017-11-29T21:10:43.178Z,97.85
2017-11-29T21:13:10.733Z,97.05
2017-11-29T21:15:38.270Z,96.63
2017-11-29T21:18:05.795Z,96.22
2017-11-29T21:20:33.325Z,95.36
2017-11-29T21:23:00.857Z,97.49
2017-11-29T21:25:28.376Z,98.09
2017-11-29T21:27:55.936Z,98.52
2017-11-29T21:30:23.454Z,99.05
2017-11-29T21:32:51.040Z,99.27
2017-11-29T21:35:18.546Z,99.38
2017-11-29T21:37:46.061Z,99.58
2017-11-29T21:40:13.722Z,99.93
2017-11-29T21:42:41.278Z,100.00
2017-11-29T21:45:08.808Z,100.00
2017-11-29T21:47:36.332Z,99.90
2017-11-29T21:50:03.967Z,100.00
2017-11-29T21:52:31.496Z,100.00
2017-11-29T21:54:59.074Z,100.00
2017-11-29T21:57:26.575Z,99.85
2017-11-29T21:59:54.111Z,98.88
2017-11-29T22:02:21.659Z,98.22
2017-11-29T22:04:49.175Z,99.13
2017-11-29T22:07:16.713Z,100.00
2017-11-29T22:09:44.238Z,100.00
2017-11-29T22:12:11.840Z,100.00
2017-11-29T22:14:39.363Z,100.00
2017-11-29T22:17:06.876Z,99.83
2017-11-29T22:19:34.373Z,99.33
2017-11-29T22:22:01.870Z,98.90
2017-11-29T22:24:29.379Z,99.49
2017-11-29T22:26:56.943Z,100.00
2017-11-29T22:29:24.465Z,100.00
2017-11-29T22:31:51.969Z,100.00
2017-11-29T22:34:19.598Z,100.00
2017-11-29T22:36:47.128Z,100.00
2017-11-29T22:39:14.731Z,100.00
2017-11-29T22:41:42.288Z,99.00
2017-11-29T22:44:09.812Z,99.59
2017-11-29T22:46:37.344Z,100.00
2017-11-29T22:49:04.876Z,99.86
2017-11-29T22:51:32.399Z,99.66
2017-11-29T22:53:59.907Z,99.85
2017-11-29T22:56:27.432Z,99.75
2017-11-29T22:58:54.972Z,99.81
2017-11-29T23:01:22.652Z,100.00
2017-11-29T23:03:50.175Z,100.00
2017-11-29T23:06:18.226Z,100.00
2017-11-29T23:08:45.741Z,100.00
2017-11-29T23:11:13.266Z,100.00
2017-11-29T23:13:40.816Z,100.00
2017-11-29T23:16:08.341Z,100.00
2017-11-29T23:18:35.887Z,100.00
2017-11-29T23:21:03.395Z,100.00
2017-11-29T23:23:30.962Z,100.00
2017-11-29T23:25:58.477Z,100.00
2017-11-29T23:28:25.981Z,100.00
2017-11-29T23:30:53.578Z,99.69
2017-11-29T23:33:21.086Z,99.38
2017-11-29T23:35:48.598Z,100.00
2017-11-29T23:38:16.134Z,100.00
2017-11-29T23:40:43.640Z,100.00
2017-11-29T23:43:11.150Z,100.00
2017-11-29T23:45:38.657Z,99.55
2017-11-29T23:48:06.150Z,98.98
2017-11-29T23:50:33.667Z,99.32
2017-11-29T23:53:01.174Z,98.77
2017-11-29T23:55:28.706Z,99.50
2017-11-29T23:57:56.226Z,99.56
